Crosby, ND

10:11 AM CDT on April 28, 2017 (GMT -0500)
Crosby

Weather History for KD50 - May, 2013

Change the Weather History Date:

Wednesday, May 8, 2013

  Actual Average (KISN) Record (KISN)
Temperature  
Mean Temperature 50 °F -  
Max Temperature 59 °F 64 °F 95 °F (1934)
Min Temperature 41 °F 38 °F 15 °F (1945)
Degree Days  
Heating Degree Days 15    
Moisture  
Dew Point 27 °F    
Average Humidity 45    
Maximum Humidity 76    
Minimum Humidity 20    
Precipitation  
Precipitation 0.00 in - - ()
Sea Level Pressure  
Sea Level Pressure 30.14 in    
Wind  
Wind Speed 14 mph (NE)    
Max Wind Speed 23 mph    
Max Gust Speed 29 mph    
Visibility 10 miles    
Events      
Averages and records for this station are not official NWS values.
T = Trace of Precipitation, MM = Missing Value Source: NWS Daily Summary

Daily Weather History Graph

Daily Weather History Graph

Search for Another Location

Airport or City:

Trip Planner

Search our weather history database for the weather conditions in past years. The results will help you decide how hot, cold, wet, or windy it might be!

Date:

Astronomy

May. 08, 2013 Rise Set
Actual Time 6:20 AM CDT 9:19 PM CDT
Civil Twilight 5:43 AM CDT 9:56 PM CDT
Nautical Twilight 4:56 AM CDT 10:44 PM CDT
Astronomical Twilight 3:58 AM CDT 11:43 PM CDT
Moon 5:37 AM CDT (5/8) 8:15 PM CDT (5/8)
Length of Visible Light 16h 12m
Length of Day
14h 58m
Waning Crescent, 2% of the Moon is Illuminated
May 8
Waning Crescent
May 9
New
May 17
First Quarter
May 24
Full
May 31
Last Quarter

Hourly Weather History & Observations

Time (CDT) Temp. Windchill Dew Point Humidity Pressure Visibility Wind Dir Wind Speed Gust Speed Precip Events Conditions
12:15 AM 51.8 °F - 42.8 °F 71% 29.94 in 10.0 mi NW 10.4 mph - N/A   Clear
12:35 AM 50.0 °F - 41.0 °F 71% 29.94 in 10.0 mi NNW 9.2 mph - N/A   Clear
12:55 AM 50.0 °F - 41.0 °F 71% 29.96 in 10.0 mi NNW 9.2 mph - N/A   Clear
1:15 AM 50.0 °F - 42.8 °F 76% 29.97 in 10.0 mi North 11.5 mph - N/A   Clear
1:35 AM 50.0 °F - 39.2 °F 66% 29.99 in 10.0 mi NE 12.7 mph - N/A   Clear
1:55 AM 50.0 °F - 39.2 °F 66% 30.01 in 10.0 mi NE 11.5 mph 18.4 mph N/A   Clear
2:15 AM 48.2 °F - 39.2 °F 71% 30.01 in 10.0 mi NE 13.8 mph 18.4 mph N/A   Clear
2:35 AM 48.2 °F - 37.4 °F 66% 30.02 in 10.0 mi NE 16.1 mph 21.9 mph N/A   Clear
2:55 AM 48.2 °F - 37.4 °F 66% 30.03 in 10.0 mi NE 18.4 mph - N/A   Clear
3:15 AM 48.2 °F - 37.4 °F 66% 30.03 in 10.0 mi NE 12.7 mph 17.3 mph N/A   Clear
3:35 AM 48.2 °F - 35.6 °F 62% 30.03 in 10.0 mi NE 16.1 mph 21.9 mph N/A   Clear
3:55 AM 46.4 °F 40.1 °F 35.6 °F 66% 30.04 in 10.0 mi NE 15.0 mph 19.6 mph N/A   Clear
4:15 AM 46.4 °F 40.7 °F 35.6 °F 66% 30.05 in 10.0 mi NE 12.7 mph 19.6 mph N/A   Clear
4:35 AM 46.4 °F 40.1 °F 35.6 °F 66% 30.05 in 10.0 mi NE 15.0 mph - N/A   Partly Cloudy
4:55 AM 46.4 °F 39.8 °F 35.6 °F 66% 30.07 in 10.0 mi NE 16.1 mph 21.9 mph N/A   Partly Cloudy
5:15 AM 46.4 °F 40.1 °F 35.6 °F 66% 30.07 in 10.0 mi NE 15.0 mph 21.9 mph N/A   Scattered Clouds
5:35 AM 44.6 °F 37.4 °F 33.8 °F 66% 30.08 in 10.0 mi NE 16.1 mph 23.0 mph N/A   Partly Cloudy
5:55 AM 44.6 °F 36.4 °F 32.0 °F 61% 30.08 in 10.0 mi NE 20.7 mph - N/A   Clear
6:15 AM 44.6 °F 36.9 °F 32.0 °F 61% 30.10 in 10.0 mi NE 18.4 mph 23.0 mph N/A   Clear
6:35 AM 42.8 °F 34.3 °F 32.0 °F 66% 30.10 in 10.0 mi NE 19.6 mph 27.6 mph N/A   Clear
6:55 AM 41.0 °F 31.6 °F 32.0 °F 70% 30.11 in 10.0 mi NE 20.7 mph 25.3 mph N/A   Clear
7:15 AM 41.0 °F 33.1 °F 32.0 °F 70% 30.12 in 10.0 mi NE 15.0 mph 21.9 mph N/A   Clear
7:35 AM 41.0 °F 31.6 °F 32.0 °F 70% 30.13 in 10.0 mi NE 20.7 mph 26.5 mph N/A   Clear
7:55 AM 42.8 °F 33.5 °F 30.2 °F 61% 30.14 in 10.0 mi NE 23.0 mph 28.8 mph N/A   Clear
8:15 AM 42.8 °F 34.3 °F 28.4 °F 57% 30.15 in 10.0 mi ENE 19.6 mph 27.6 mph N/A   Clear
8:35 AM 44.6 °F 37.4 °F 28.4 °F 53% 30.16 in 10.0 mi ENE 16.1 mph 27.6 mph N/A   Clear
8:55 AM 44.6 °F 36.4 °F 28.4 °F 53% 30.16 in 10.0 mi ENE 20.7 mph 25.3 mph N/A   Clear
9:15 AM 44.6 °F 36.6 °F 28.4 °F 53% 30.17 in 10.0 mi NE 19.6 mph - N/A   Clear
9:35 AM 46.4 °F 39.2 °F 26.6 °F 46% 30.18 in 10.0 mi ENE 18.4 mph 24.2 mph N/A   Clear
9:55 AM 46.4 °F 39.2 °F 26.6 °F 46% 30.18 in 10.0 mi NE 18.4 mph 24.2 mph N/A   Clear
10:15 AM 48.2 °F - 24.8 °F 40% 30.19 in 10.0 mi ENE 19.6 mph 27.6 mph N/A   Clear
10:35 AM 48.2 °F - 23.0 °F 37% 30.19 in 10.0 mi NE 19.6 mph 24.2 mph N/A   Clear
10:55 AM 50.0 °F - 23.0 °F 35% 30.20 in 10.0 mi ENE 16.1 mph 21.9 mph N/A   Clear
11:15 AM 50.0 °F - 23.0 °F 35% 30.20 in 10.0 mi NE 16.1 mph 23.0 mph N/A   Clear
11:35 AM 50.0 °F - 21.2 °F 32% 30.20 in 10.0 mi East 17.3 mph 21.9 mph N/A   Clear
11:55 AM 50.0 °F - 23.0 °F 35% 30.20 in 10.0 mi ENE 15.0 mph 23.0 mph N/A   Clear
12:15 PM 53.6 °F - 23.0 °F 30% 30.21 in 10.0 mi ENE 13.8 mph 23.0 mph N/A   Clear
12:35 PM 53.6 °F - 21.2 °F 28% 30.20 in 10.0 mi ENE 12.7 mph 21.9 mph N/A   Clear
12:55 PM 53.6 °F - 23.0 °F 30% 30.21 in 10.0 mi ENE 12.7 mph 24.2 mph N/A   Clear
1:15 PM 53.6 °F - 23.0 °F 30% 30.21 in 10.0 mi ENE 12.7 mph - N/A   Clear
1:35 PM 55.4 °F - 23.0 °F 29% 30.21 in 10.0 mi ENE 13.8 mph 23.0 mph N/A   Clear
1:55 PM 55.4 °F - 23.0 °F 29% 30.21 in 10.0 mi NE 12.7 mph 19.6 mph N/A   Clear
2:15 PM 55.4 °F - 21.2 °F 26% 30.20 in 10.0 mi ENE 13.8 mph 26.5 mph N/A   Clear
2:35 PM 57.2 °F - 23.0 °F 27% 30.20 in 10.0 mi ENE 13.8 mph 19.6 mph N/A   Clear
2:55 PM 57.2 °F - 23.0 °F 27% 30.20 in 10.0 mi NE 16.1 mph 21.9 mph N/A   Clear
3:35 PM 57.2 °F - 21.2 °F 25% 30.20 in 10.0 mi ENE 11.5 mph 21.9 mph N/A   Clear
3:55 PM 59.0 °F - 21.2 °F 23% 30.20 in 10.0 mi ENE 12.7 mph 19.6 mph N/A   Clear
4:15 PM 59.0 °F - 21.2 °F 23% 30.20 in 10.0 mi NE 12.7 mph 20.7 mph N/A   Clear
4:35 PM 59.0 °F - 23.0 °F 25% 30.19 in 10.0 mi ENE 15.0 mph 19.6 mph N/A   Clear
4:55 PM 59.0 °F - 21.2 °F 23% 30.20 in 10.0 mi NE 13.8 mph 20.7 mph N/A   Clear
5:15 PM 59.0 °F - 19.4 °F 22% 30.19 in 10.0 mi NE 15.0 mph - N/A   Clear
5:35 PM 59.0 °F - 19.4 °F 22% 30.19 in 10.0 mi ENE 15.0 mph 21.9 mph N/A   Clear
5:55 PM 59.0 °F - 19.4 °F 22% 30.19 in 10.0 mi ENE 13.8 mph - N/A   Clear
6:15 PM 59.0 °F - 19.4 °F 22% 30.19 in 10.0 mi ENE 15.0 mph 20.7 mph N/A   Clear
6:35 PM 59.0 °F - 19.4 °F 22% 30.19 in 10.0 mi NE 13.8 mph - N/A   Clear
6:55 PM 57.2 °F - 17.6 °F 21% 30.19 in 10.0 mi ENE 12.7 mph 17.3 mph N/A   Clear
7:15 PM 57.2 °F - 15.8 °F 20% 30.20 in 10.0 mi East 10.4 mph - N/A   Clear
7:35 PM 57.2 °F - 17.6 °F 21% 30.20 in 10.0 mi ENE 10.4 mph - N/A   Clear
7:55 PM 57.2 °F - 19.4 °F 23% 30.20 in 10.0 mi ENE 11.5 mph - N/A   Clear
8:15 PM 55.4 °F - 19.4 °F 25% 30.20 in 10.0 mi ENE 10.4 mph - N/A   Clear
8:35 PM 53.6 °F - 21.2 °F 28% 30.21 in 10.0 mi ENE 10.4 mph - N/A   Clear
8:55 PM 50.0 °F - 23.0 °F 35% 30.21 in 10.0 mi ENE 9.2 mph - N/A   Clear
9:15 PM 48.2 °F - 24.8 °F 40% 30.21 in 10.0 mi ENE 9.2 mph - N/A   Clear
9:35 PM 46.4 °F 41.9 °F 24.8 °F 43% 30.22 in 10.0 mi ENE 9.2 mph - N/A   Clear
10:15 PM 42.8 °F 38.6 °F 26.6 °F 53% 30.24 in 10.0 mi ENE 6.9 mph - N/A   Clear
10:35 PM 41.0 °F 35.8 °F 26.6 °F 57% 30.24 in 10.0 mi ENE 8.1 mph - N/A   Clear
10:55 PM 41.0 °F 35.2 °F 26.6 °F 57% 30.24 in 10.0 mi ENE 9.2 mph - N/A   Clear
11:55 PM 41.0 °F 34.7 °F 24.8 °F 53% 30.26 in 10.0 mi East 10.4 mph - N/A   Clear